createdAt,value
2022-10-31T00:01:43.342Z,5.97
2022-10-31T00:04:11.226Z,8.67
2022-10-31T00:06:39.086Z,9.33
2022-10-31T00:09:07.565Z,7.73
2022-10-31T00:11:35.432Z,6.70
2022-10-31T00:14:05.058Z,10.97
2022-10-31T00:16:33.266Z,9.40
2022-10-31T00:19:02.695Z,8.83
2022-10-31T00:21:31.355Z,4.00
2022-10-31T00:23:59.729Z,6.03
2022-10-31T00:26:28.988Z,5.37
2022-10-31T00:28:56.919Z,6.00
2022-10-31T00:31:26.142Z,6.40
2022-10-31T00:33:54.035Z,5.67
2022-10-31T00:36:22.225Z,5.97
2022-10-31T00:38:50.487Z,4.60
2022-10-31T00:41:19.495Z,4.50
2022-10-31T00:43:47.349Z,4.07
2022-10-31T00:46:15.996Z,3.07
2022-10-31T00:48:45.380Z,2.77
2022-10-31T00:51:13.239Z,3.03
2022-10-31T00:53:41.113Z,2.73
2022-10-31T00:56:09.120Z,3.13
2022-10-31T00:58:37.058Z,3.13
2022-10-31T01:01:05.654Z,2.93
2022-10-31T01:03:35.265Z,2.70
2022-10-31T01:06:06.450Z,2.77
2022-10-31T01:08:34.825Z,3.00
2022-10-31T01:11:09.342Z,3.40
2022-10-31T01:13:37.661Z,2.77
2022-10-31T01:16:07.987Z,2.90
2022-10-31T01:18:36.344Z,2.60
2022-10-31T01:21:07.554Z,2.27
2022-10-31T01:23:36.248Z,3.10
2022-10-31T01:26:08.387Z,3.20
2022-10-31T01:28:37.606Z,2.93
2022-10-31T01:31:08.638Z,2.50
2022-10-31T01:33:36.861Z,2.93
2022-10-31T01:36:18.838Z,2.93
2022-10-31T01:38:47.345Z,2.90
2022-10-31T01:41:17.154Z,2.87
2022-10-31T01:43:51.355Z,3.47
2022-10-31T01:46:24.053Z,3.10
2022-10-31T01:48:53.391Z,3.40
2022-10-31T01:51:25.434Z,3.80
2022-10-31T01:53:56.283Z,3.10
2022-10-31T01:56:24.418Z,2.90
2022-10-31T01:58:53.169Z,2.40
2022-10-31T02:01:21.303Z,2.60
2022-10-31T02:03:49.871Z,3.37
2022-10-31T02:06:28.697Z,3.23
2022-10-31T02:08:59.060Z,2.97
2022-10-31T02:11:27.889Z,3.40
2022-10-31T02:13:56.522Z,3.00
2022-10-31T02:16:24.336Z,3.67
2022-10-31T02:18:52.211Z,3.17
2022-10-31T02:21:26.632Z,2.93
2022-10-31T02:24:27.969Z,3.20
2022-10-31T02:27:13.154Z,2.87
2022-10-31T02:30:06.446Z,2.77
2022-10-31T02:33:08.021Z,3.60
2022-10-31T02:35:44.486Z,3.20
2022-10-31T02:38:24.638Z,2.80
2022-10-31T02:41:01.456Z,3.27
2022-10-31T02:43:34.503Z,3.10
2022-10-31T02:46:09.263Z,3.10
2022-10-31T02:48:41.840Z,2.70
2022-10-31T02:51:12.007Z,2.80
2022-10-31T02:53:40.582Z,3.77
2022-10-31T02:56:13.946Z,2.80
2022-10-31T02:58:47.160Z,3.23
2022-10-31T03:01:35.814Z,2.90
2022-10-31T03:04:25.682Z,4.10
2022-10-31T03:07:00.300Z,3.10
2022-10-31T03:09:32.088Z,2.90
2022-10-31T03:12:05.214Z,3.00
2022-10-31T03:14:42.942Z,3.10
2022-10-31T03:17:16.358Z,3.37
2022-10-31T03:19:49.362Z,3.10
2022-10-31T03:22:21.284Z,2.90
2022-10-31T03:24:50.809Z,2.73
2022-10-31T03:27:22.257Z,3.00
2022-10-31T03:29:52.545Z,3.23
2022-10-31T03:32:24.373Z,3.20
2022-10-31T03:34:58.053Z,3.03
2022-10-31T03:37:29.052Z,2.77
2022-10-31T03:40:00.108Z,3.00
2022-10-31T03:42:32.145Z,3.27
2022-10-31T03:45:03.979Z,3.07
2022-10-31T03:47:32.355Z,3.40
2022-10-31T03:50:01.878Z,3.20
2022-10-31T03:52:34.102Z,3.03
2022-10-31T03:55:11.136Z,3.53
2022-10-31T03:57:45.488Z,3.70
2022-10-31T04:00:16.399Z,3.33
2022-10-31T04:02:49.678Z,2.67
2022-10-31T04:05:20.555Z,3.53
2022-10-31T04:07:52.518Z,2.70
2022-10-31T04:10:21.824Z,3.03
2022-10-31T04:12:54.249Z,3.17
2022-10-31T04:15:24.541Z,3.20
2022-10-31T04:17:55.528Z,3.83
2022-10-31T04:20:34.005Z,3.30
2022-10-31T04:23:02.440Z,3.20
2022-10-31T04:25:30.337Z,3.13
2022-10-31T04:27:58.456Z,3.53
2022-10-31T04:30:26.545Z,3.53
2022-10-31T04:32:54.394Z,3.33
2022-10-31T04:35:22.246Z,3.57
2022-10-31T04:37:51.398Z,3.30
2022-10-31T04:40:19.194Z,2.93
2022-10-31T04:42:47.014Z,3.27
2022-10-31T04:45:18.381Z,3.70
2022-10-31T04:47:48.989Z,3.00
2022-10-31T04:50:17.421Z,3.67
2022-10-31T04:52:46.730Z,3.23
2022-10-31T04:55:16.596Z,3.77
2022-10-31T04:57:44.769Z,3.97
2022-10-31T05:00:14.972Z,3.77
2022-10-31T05:02:46.132Z,3.77
2022-10-31T05:05:14.482Z,3.77
2022-10-31T05:07:43.420Z,4.07
2022-10-31T05:10:12.589Z,3.80
2022-10-31T05:12:48.071Z,3.80
2022-10-31T05:15:16.262Z,4.00
2022-10-31T05:17:44.217Z,4.00
2022-10-31T05:20:12.932Z,3.53
2022-10-31T05:22:45.411Z,4.00
2022-10-31T05:25:13.863Z,3.90
2022-10-31T05:27:43.838Z,3.90
2022-10-31T05:30:13.567Z,3.27
2022-10-31T05:32:42.096Z,3.60
2022-10-31T05:35:11.227Z,4.40
2022-10-31T05:37:39.675Z,4.57
2022-10-31T05:40:10.037Z,5.00
2022-10-31T05:42:39.931Z,3.70
2022-10-31T05:45:10.291Z,4.13
2022-10-31T05:47:38.199Z,5.00
2022-10-31T05:50:07.014Z,4.80
2022-10-31T05:52:35.199Z,4.20
2022-10-31T05:55:03.092Z,4.70
2022-10-31T05:57:35.427Z,4.37
2022-10-31T06:00:03.442Z,4.20
2022-10-31T06:02:35.309Z,4.43
2022-10-31T06:05:03.276Z,4.27
2022-10-31T06:07:35.010Z,4.10
2022-10-31T06:10:04.010Z,4.23
2022-10-31T06:12:31.871Z,4.37
2022-10-31T06:14:59.705Z,4.17
2022-10-31T06:17:27.536Z,4.63
2022-10-31T06:19:56.720Z,4.30
2022-10-31T06:22:24.626Z,4.33
2022-10-31T06:24:52.522Z,4.83
2022-10-31T06:27:20.477Z,4.70
2022-10-31T06:29:48.362Z,4.80
2022-10-31T06:32:16.543Z,4.13
2022-10-31T06:34:45.050Z,4.10
2022-10-31T06:37:14.557Z,4.37
2022-10-31T06:39:42.409Z,4.60
2022-10-31T06:42:10.251Z,4.00
2022-10-31T06:44:38.132Z,3.97
2022-10-31T06:47:07.443Z,4.60
2022-10-31T06:49:35.567Z,3.67
2022-10-31T06:52:03.609Z,4.30
2022-10-31T06:54:32.952Z,4.43
2022-10-31T06:57:00.802Z,4.17
2022-10-31T06:59:29.201Z,4.80
2022-10-31T07:01:57.195Z,4.93
2022-10-31T07:04:25.374Z,4.10
2022-10-31T07:06:53.516Z,4.77
2022-10-31T07:09:21.657Z,5.23
2022-10-31T07:11:53.607Z,4.93
2022-10-31T07:14:21.528Z,5.27
2022-10-31T07:16:51.182Z,5.40
2022-10-31T07:19:19.298Z,4.77
2022-10-31T07:21:47.152Z,4.67
2022-10-31T07:24:14.991Z,4.67
2022-10-31T07:26:43.279Z,5.40
2022-10-31T07:29:12.552Z,5.70
2022-10-31T07:31:40.761Z,4.93
2022-10-31T07:34:08.691Z,5.37
2022-10-31T07:36:36.579Z,5.23
2022-10-31T07:39:04.648Z,4.53
2022-10-31T07:41:32.478Z,4.63
2022-10-31T07:44:00.314Z,4.93
2022-10-31T07:46:29.517Z,5.40
2022-10-31T07:48:57.347Z,5.70
2022-10-31T07:51:25.249Z,5.33
2022-10-31T07:53:53.106Z,5.10
2022-10-31T07:56:20.933Z,4.60
2022-10-31T07:58:48.813Z,6.63
2022-10-31T08:01:16.710Z,6.17
2022-10-31T08:03:45.916Z,5.50
2022-10-31T08:06:13.771Z,5.00
2022-10-31T08:08:41.563Z,5.90
2022-10-31T08:11:09.374Z,5.13
2022-10-31T08:13:37.187Z,5.50
2022-10-31T08:16:05.766Z,5.07
2022-10-31T08:18:33.613Z,4.80
2022-10-31T08:21:02.803Z,6.07
2022-10-31T08:23:30.666Z,4.67
2022-10-31T08:25:59.614Z,4.90
2022-10-31T08:28:27.744Z,5.10
2022-10-31T08:30:55.558Z,4.93
2022-10-31T08:33:23.369Z,4.60
2022-10-31T08:35:51.226Z,4.80
2022-10-31T08:38:20.412Z,4.80
2022-10-31T08:40:50.627Z,5.90
2022-10-31T08:43:19.950Z,4.83
2022-10-31T08:45:51.098Z,5.40
2022-10-31T08:48:19.465Z,5.00
2022-10-31T08:50:47.657Z,4.93
2022-10-31T08:53:17.203Z,5.00
2022-10-31T08:55:47.920Z,5.07
2022-10-31T08:58:17.400Z,5.20
2022-10-31T09:00:46.188Z,5.30
2022-10-31T09:03:16.049Z,5.37
2022-10-31T09:05:44.282Z,4.47
2022-10-31T09:08:16.368Z,5.27
2022-10-31T09:10:46.817Z,5.00
2022-10-31T09:13:16.404Z,5.30
2022-10-31T09:15:45.988Z,5.00
2022-10-31T09:18:14.810Z,4.63
2022-10-31T09:20:44.108Z,4.57
2022-10-31T09:23:14.039Z,5.53
2022-10-31T09:25:46.165Z,4.70
2022-10-31T09:28:21.451Z,5.47
2022-10-31T09:30:50.386Z,4.67
2022-10-31T09:33:18.660Z,4.70
2022-10-31T09:35:46.904Z,4.70
2022-10-31T09:38:16.564Z,4.70
2022-10-31T09:40:45.977Z,4.13
2022-10-31T09:43:21.125Z,5.07
2022-10-31T09:45:58.039Z,4.60
2022-10-31T09:48:48.596Z,4.30
2022-10-31T09:51:20.839Z,4.60
2022-10-31T09:53:52.213Z,4.87
2022-10-31T09:56:22.250Z,5.10
2022-10-31T09:58:54.862Z,5.50
2022-10-31T10:01:34.844Z,6.10
2022-10-31T10:04:13.796Z,6.93
2022-10-31T10:06:48.517Z,5.90
2022-10-31T10:09:16.497Z,6.10
2022-10-31T10:11:56.862Z,6.77
2022-10-31T10:14:40.318Z,6.17
2022-10-31T10:17:20.629Z,6.50
2022-10-31T10:20:26.686Z,6.30
2022-10-31T10:23:05.515Z,5.20
2022-10-31T10:25:40.535Z,5.83
2022-10-31T10:28:18.795Z,5.83
2022-10-31T10:30:52.108Z,5.60
2022-10-31T10:33:24.343Z,5.97
2022-10-31T10:35:55.339Z,6.40
2022-10-31T10:38:29.437Z,6.07
2022-10-31T10:40:57.544Z,6.40
2022-10-31T10:43:31.558Z,6.47
2022-10-31T10:46:33.942Z,7.10
2022-10-31T10:49:12.003Z,6.00
2022-10-31T10:54:47.753Z,6.13
2022-10-31T10:57:25.015Z,7.30
2022-10-31T10:59:53.730Z,7.93
2022-10-31T11:02:29.035Z,6.33
2022-10-31T11:04:59.143Z,6.80
2022-10-31T11:07:27.118Z,6.10
2022-10-31T11:10:05.844Z,6.47
2022-10-31T11:12:35.495Z,6.87
2022-10-31T11:15:10.063Z,8.07
2022-10-31T11:17:41.958Z,7.40
2022-10-31T11:20:31.290Z,7.30
2022-10-31T11:23:19.823Z,7.17
2022-10-31T11:25:52.678Z,6.93
2022-10-31T11:28:20.499Z,6.73
2022-10-31T11:30:51.798Z,7.30
2022-10-31T11:33:30.406Z,7.07
2022-10-31T11:35:59.372Z,6.23
2022-10-31T11:38:33.462Z,7.00
2022-10-31T11:41:11.646Z,6.80
2022-10-31T11:43:41.024Z,6.50
2022-10-31T11:46:13.519Z,5.87
2022-10-31T11:48:49.400Z,5.17
2022-10-31T11:51:23.100Z,6.40
2022-10-31T11:53:56.946Z,5.70
2022-10-31T11:56:28.838Z,6.10
2022-10-31T11:58:58.306Z,6.30
2022-10-31T12:01:28.396Z,6.43
2022-10-31T12:04:08.234Z,6.10
2022-10-31T12:06:38.158Z,6.37
2022-10-31T12:09:19.440Z,6.30
2022-10-31T12:12:07.925Z,6.57
2022-10-31T12:14:44.526Z,6.00
2022-10-31T12:17:17.834Z,5.33
2022-10-31T12:19:56.190Z,5.13
2022-10-31T12:22:35.186Z,5.60
2022-10-31T12:25:30.678Z,5.23
2022-10-31T12:28:09.879Z,5.27
2022-10-31T12:30:51.091Z,5.87
2022-10-31T12:33:36.518Z,6.10
2022-10-31T12:36:42.747Z,6.23
2022-10-31T12:39:33.416Z,4.80
2022-10-31T12:42:10.221Z,4.97
2022-10-31T12:45:00.745Z,5.20
2022-10-31T12:47:49.609Z,4.37
2022-10-31T12:50:31.097Z,5.30
2022-10-31T12:53:11.078Z,5.93
2022-10-31T12:55:52.556Z,4.83
2022-10-31T12:58:26.528Z,4.80
2022-10-31T13:01:06.509Z,4.77
2022-10-31T13:03:44.525Z,4.50
2022-10-31T13:06:21.123Z,4.77
2022-10-31T13:08:54.405Z,4.37
2022-10-31T13:11:26.568Z,5.40
2022-10-31T13:14:02.042Z,4.90
2022-10-31T13:16:34.860Z,5.20
2022-10-31T13:19:10.795Z,5.00
2022-10-31T13:21:43.090Z,5.37
2022-10-31T13:24:18.086Z,4.97
2022-10-31T13:26:50.085Z,5.40
2022-10-31T13:29:26.906Z,5.83
2022-10-31T13:31:58.046Z,4.93
2022-10-31T13:34:29.184Z,4.93
2022-10-31T13:37:11.919Z,5.50
2022-10-31T13:39:53.118Z,6.00
2022-10-31T13:42:26.014Z,5.40
2022-10-31T13:44:53.845Z,5.83
2022-10-31T13:47:28.496Z,6.30
2022-10-31T13:50:08.029Z,5.27
2022-10-31T13:52:35.891Z,4.77
2022-10-31T13:55:05.316Z,5.43
2022-10-31T13:57:36.890Z,5.23
2022-10-31T14:00:08.665Z,5.60
2022-10-31T14:02:37.999Z,5.77
2022-10-31T14:05:20.498Z,5.40
2022-10-31T14:07:49.060Z,5.30
2022-10-31T14:10:27.647Z,6.07
2022-10-31T14:13:04.331Z,6.50
2022-10-31T14:15:32.767Z,5.33
2022-10-31T14:18:03.319Z,5.47
2022-10-31T14:20:38.537Z,6.67
2022-10-31T14:23:36.503Z,6.00
2022-10-31T14:26:34.653Z,5.93
2022-10-31T14:29:04.183Z,6.00
2022-10-31T14:31:37.075Z,5.27
2022-10-31T14:34:24.207Z,5.67
2022-10-31T14:37:03.098Z,5.57
2022-10-31T14:39:35.200Z,5.13
2022-10-31T14:42:21.713Z,5.40
2022-10-31T14:45:08.002Z,5.50
2022-10-31T14:47:47.568Z,5.63
2022-10-31T14:50:25.102Z,5.77
2022-10-31T14:52:56.800Z,6.40
2022-10-31T14:55:26.385Z,5.33
2022-10-31T14:58:00.425Z,7.07
2022-10-31T15:00:29.968Z,6.33
2022-10-31T15:03:09.944Z,7.63
2022-10-31T15:05:45.649Z,6.30
2022-10-31T15:08:28.693Z,6.57
2022-10-31T15:10:56.638Z,6.70
2022-10-31T15:13:25.871Z,6.53
2022-10-31T15:15:56.548Z,5.93
2022-10-31T15:18:28.440Z,7.00
2022-10-31T15:20:58.142Z,5.80
2022-10-31T15:23:27.757Z,6.53
2022-10-31T15:26:01.524Z,7.60
2022-10-31T15:28:32.150Z,6.50
2022-10-31T15:31:01.392Z,7.33
2022-10-31T15:33:37.635Z,7.70
2022-10-31T15:36:06.581Z,6.73
2022-10-31T15:38:34.761Z,7.10
2022-10-31T15:41:05.705Z,6.77
2022-10-31T15:43:38.035Z,6.90
2022-10-31T15:46:08.773Z,6.90
2022-10-31T15:48:37.881Z,7.33
2022-10-31T15:51:05.964Z,7.53
2022-10-31T15:53:39.934Z,6.40
2022-10-31T15:56:09.912Z,6.40
2022-10-31T15:58:45.553Z,8.20
2022-10-31T16:01:23.625Z,7.37
2022-10-31T16:04:02.909Z,8.20
2022-10-31T16:06:31.752Z,7.83
2022-10-31T16:08:59.706Z,7.00
2022-10-31T16:11:34.586Z,7.30
2022-10-31T16:14:08.163Z,7.20
2022-10-31T16:16:43.400Z,7.53
2022-10-31T16:19:20.555Z,6.90
2022-10-31T16:21:50.992Z,7.07
2022-10-31T16:24:22.181Z,10.37
2022-10-31T16:26:51.649Z,9.50
2022-10-31T16:29:34.497Z,8.10
2022-10-31T16:32:02.377Z,8.30
2022-10-31T16:34:30.259Z,9.03
2022-10-31T16:36:58.130Z,9.93
2022-10-31T16:39:25.946Z,9.30
2022-10-31T16:41:57.326Z,8.90
2022-10-31T16:44:26.861Z,8.90
2022-10-31T16:47:14.441Z,10.63
2022-10-31T16:49:44.276Z,8.63
2022-10-31T16:52:12.126Z,9.83
2022-10-31T16:54:40.067Z,14.90
2022-10-31T16:57:08.612Z,9.30
2022-10-31T16:59:36.726Z,8.90
2022-10-31T17:02:05.564Z,9.83
2022-10-31T17:07:08.175Z,9.03
2022-10-31T17:09:35.990Z,11.77
2022-10-31T17:12:04.955Z,10.53
2022-10-31T17:14:33.246Z,9.90
2022-10-31T17:17:01.097Z,9.00
2022-10-31T17:19:28.923Z,10.00
2022-10-31T17:21:58.287Z,11.07
2022-10-31T17:24:26.094Z,8.33
2022-10-31T17:26:53.931Z,8.70
2022-10-31T17:29:21.767Z,9.20
2022-10-31T17:31:49.612Z,9.00
2022-10-31T17:34:19.054Z,9.50
2022-10-31T17:36:52.171Z,9.50
2022-10-31T17:39:21.701Z,9.97
2022-10-31T17:41:51.705Z,10.27
2022-10-31T17:44:20.058Z,8.40
2022-10-31T17:46:47.907Z,7.93
2022-10-31T17:49:15.826Z,8.90
2022-10-31T17:51:43.644Z,12.90
2022-10-31T17:54:11.931Z,9.13
2022-10-31T17:56:41.109Z,8.53
2022-10-31T17:59:09.230Z,12.10
2022-10-31T18:01:37.335Z,12.93
2022-10-31T18:04:05.494Z,9.60
2022-10-31T18:06:33.342Z,12.57
2022-10-31T18:09:04.174Z,15.17
2022-10-31T18:11:32.262Z,10.27
2022-10-31T18:14:01.941Z,10.07
2022-10-31T18:16:29.777Z,10.03
2022-10-31T18:19:01.668Z,14.40
2022-10-31T18:21:29.674Z,13.03
2022-10-31T18:23:58.616Z,11.60
2022-10-31T18:26:27.931Z,11.07
2022-10-31T18:28:56.242Z,11.60
2022-10-31T18:31:25.718Z,10.30
2022-10-31T18:33:54.410Z,8.80
2022-10-31T18:36:22.803Z,10.00
2022-10-31T18:38:50.787Z,9.87
2022-10-31T18:41:18.616Z,8.50
2022-10-31T18:43:46.485Z,8.50
2022-10-31T18:46:16.310Z,8.30
2022-10-31T18:48:46.388Z,8.77
2022-10-31T18:51:18.003Z,8.70
2022-10-31T18:53:51.699Z,9.33
2022-10-31T18:56:19.799Z,8.17
2022-10-31T18:58:47.968Z,8.30
2022-10-31T19:01:16.853Z,8.87
2022-10-31T19:03:46.231Z,10.10
2022-10-31T19:06:14.079Z,10.63
2022-10-31T19:08:41.884Z,11.07
2022-10-31T19:11:11.943Z,12.73
2022-10-31T19:13:40.852Z,13.07
2022-10-31T19:16:10.656Z,12.10
2022-10-31T19:18:39.183Z,12.00
2022-10-31T19:21:09.923Z,9.20
2022-10-31T19:23:38.062Z,9.40
2022-10-31T19:26:06.294Z,9.37
2022-10-31T19:28:35.962Z,9.93
2022-10-31T19:31:04.030Z,11.47
2022-10-31T19:33:35.853Z,12.07
2022-10-31T19:36:08.236Z,11.00
2022-10-31T19:38:38.506Z,8.90
2022-10-31T19:41:08.290Z,9.13
2022-10-31T19:43:36.347Z,8.93
2022-10-31T19:46:06.090Z,7.73
2022-10-31T19:48:37.161Z,7.50
2022-10-31T19:51:07.142Z,7.97
2022-10-31T19:53:35.374Z,7.90
2022-10-31T19:56:05.340Z,7.93
2022-10-31T19:58:33.540Z,8.40
2022-10-31T20:01:01.392Z,7.90
2022-10-31T20:03:29.273Z,8.63
2022-10-31T20:05:57.159Z,7.20
2022-10-31T20:08:25.017Z,7.80
2022-10-31T20:10:56.832Z,6.57
2022-10-31T20:13:26.402Z,5.60
2022-10-31T20:15:58.808Z,5.40
2022-10-31T20:18:26.728Z,5.70
2022-10-31T20:20:54.644Z,6.83
2022-10-31T20:23:22.494Z,7.00
2022-10-31T20:25:50.654Z,6.60
2022-10-31T20:28:18.769Z,7.07
2022-10-31T20:30:47.991Z,6.80
2022-10-31T20:33:15.858Z,6.70
2022-10-31T20:35:43.977Z,7.00
2022-10-31T20:38:11.977Z,7.40
2022-10-31T20:40:40.057Z,5.67
2022-10-31T20:43:07.999Z,5.40
2022-10-31T20:45:36.678Z,5.60
2022-10-31T20:48:06.032Z,6.40
2022-10-31T20:50:33.894Z,6.57
2022-10-31T20:53:02.421Z,5.43
2022-10-31T20:55:30.434Z,6.87
2022-10-31T20:57:58.691Z,6.07
2022-10-31T21:00:26.512Z,6.17
2022-10-31T21:02:54.361Z,7.20
2022-10-31T21:05:23.951Z,6.67
2022-10-31T21:10:24.549Z,5.73
2022-10-31T21:12:52.455Z,5.57
2022-10-31T21:15:20.438Z,5.23
2022-10-31T21:17:48.274Z,5.57
2022-10-31T21:20:16.485Z,5.37
2022-10-31T21:22:45.702Z,6.60
2022-10-31T21:25:13.574Z,5.70
2022-10-31T21:27:43.026Z,6.10
2022-10-31T21:30:11.320Z,5.90
2022-10-31T21:32:39.167Z,6.27
2022-10-31T21:35:07.673Z,7.30
2022-10-31T21:37:35.593Z,5.43
2022-10-31T21:40:05.143Z,6.03
2022-10-31T21:42:32.953Z,5.83
2022-10-31T21:45:00.754Z,5.80
2022-10-31T21:47:28.727Z,5.57
2022-10-31T21:49:57.114Z,6.70
2022-10-31T21:52:24.976Z,6.40
2022-10-31T21:54:51.822Z,5.50
2022-10-31T21:59:50.215Z,5.53
2022-10-31T22:02:20.425Z,5.77
2022-10-31T22:04:50.264Z,5.20
2022-10-31T22:07:18.350Z,6.40
2022-10-31T22:09:47.352Z,7.70
2022-10-31T22:12:15.739Z,6.13
2022-10-31T22:14:44.940Z,5.30
2022-10-31T22:17:12.788Z,5.77
2022-10-31T22:19:40.724Z,5.00
2022-10-31T22:22:08.642Z,5.07
2022-10-31T22:24:36.477Z,5.20
2022-10-31T22:27:04.339Z,5.07
2022-10-31T22:29:32.260Z,4.80
2022-10-31T22:32:02.121Z,4.90
2022-10-31T22:34:30.124Z,5.20
2022-10-31T22:36:57.951Z,4.40
2022-10-31T22:39:25.768Z,5.33
2022-10-31T22:41:53.598Z,5.30
2022-10-31T22:44:21.453Z,5.37
2022-10-31T22:46:49.312Z,5.43
2022-10-31T22:49:18.503Z,5.10
2022-10-31T22:51:46.582Z,6.03
2022-10-31T22:54:16.310Z,5.47
2022-10-31T22:56:44.595Z,5.07
2022-10-31T22:59:14.159Z,5.17
2022-10-31T23:01:44.723Z,5.10
2022-10-31T23:04:13.429Z,5.17
2022-10-31T23:06:42.931Z,5.40
2022-10-31T23:09:15.770Z,5.67
2022-10-31T23:11:44.024Z,5.93
2022-10-31T23:14:13.803Z,6.37
2022-10-31T23:16:47.253Z,6.10
2022-10-31T23:19:17.453Z,5.30
2022-10-31T23:21:59.564Z,5.40
2022-10-31T23:24:32.733Z,5.50
2022-10-31T23:27:07.693Z,5.40
2022-10-31T23:29:37.620Z,5.27
2022-10-31T23:32:07.461Z,5.90
2022-10-31T23:34:35.270Z,4.50
2022-10-31T23:37:04.577Z,5.33
2022-10-31T23:39:32.420Z,5.50
2022-10-31T23:42:00.349Z,5.20
2022-10-31T23:44:28.161Z,6.20
2022-10-31T23:46:55.989Z,5.20
2022-10-31T23:49:23.828Z,4.97
2022-10-31T23:51:51.654Z,5.33
2022-10-31T23:54:20.824Z,5.37
2022-10-31T23:56:48.731Z,5.03
2022-10-31T23:59:16.659Z,4.40
